createdAt,value
2018-12-21T00:00:15.814Z,10.30
2018-12-21T00:01:20.227Z,10.30
2018-12-21T00:02:24.694Z,10.40
2018-12-21T00:03:29.481Z,10.50
2018-12-21T00:04:33.944Z,10.40
2018-12-21T00:05:38.243Z,10.40
2018-12-21T00:06:42.611Z,10.30
2018-12-21T00:07:46.914Z,10.30
2018-12-21T00:08:52.114Z,10.30
2018-12-21T00:09:56.469Z,10.20
2018-12-21T00:11:03.806Z,10.30
2018-12-21T00:12:08.355Z,10.20
2018-12-21T00:13:12.716Z,10.20
2018-12-21T00:14:18.447Z,10.20
2018-12-21T00:15:23.111Z,10.30
2018-12-21T00:16:29.445Z,10.20
2018-12-21T00:17:34.649Z,10.30
2018-12-21T00:18:40.145Z,10.30
2018-12-21T00:19:44.712Z,10.20
2018-12-21T00:20:49.058Z,10.30
2018-12-21T00:21:53.436Z,10.50
2018-12-21T00:22:57.852Z,10.30
2018-12-21T00:24:02.273Z,10.20
2018-12-21T00:25:07.336Z,10.20
2018-12-21T00:26:11.681Z,10.20
2018-12-21T00:27:17.168Z,10.20
2018-12-21T00:28:21.566Z,10.20
2018-12-21T00:29:26.944Z,10.20
2018-12-21T00:30:30.270Z,10.20
2018-12-21T00:31:49.888Z,10.20
2018-12-21T00:33:09.388Z,10.20
2018-12-21T00:34:40.839Z,10.20
2018-12-21T00:35:50.707Z,10.20
2018-12-21T00:37:00.333Z,10.20
2018-12-21T00:38:09.652Z,10.20
2018-12-21T00:39:19.340Z,10.20
2018-12-21T00:40:30.123Z,10.20
2018-12-21T00:41:36.400Z,10.20
2018-12-21T00:42:47.507Z,10.20
2018-12-21T00:44:01.054Z,10.10
2018-12-21T00:45:10.058Z,10.10
2018-12-21T00:46:22.202Z,10.10
2018-12-21T00:47:27.084Z,10.20
2018-12-21T00:48:32.284Z,10.10
2018-12-21T00:49:37.548Z,9.90
2018-12-21T00:50:42.640Z,10.10
2018-12-21T00:51:48.203Z,10.20
2018-12-21T00:52:53.268Z,10.20
2018-12-21T00:54:00.882Z,10.10
2018-12-21T00:55:06.071Z,10.20
2018-12-21T00:56:11.550Z,10.20
2018-12-21T00:57:16.732Z,10.20
2018-12-21T00:58:23.647Z,10.20
2018-12-21T00:59:28.910Z,10.20
2018-12-21T01:00:33.444Z,10.20
2018-12-21T01:01:38.941Z,10.20
2018-12-21T01:02:44.115Z,10.20
2018-12-21T01:03:48.525Z,10.20
2018-12-21T01:04:53.876Z,10.20
2018-12-21T01:05:58.220Z,10.20
2018-12-21T01:07:10.187Z,10.20
2018-12-21T01:08:14.504Z,10.20
2018-12-21T01:09:19.418Z,10.20
2018-12-21T01:10:27.991Z,10.20
2018-12-21T01:11:32.412Z,10.20
2018-12-21T01:12:37.059Z,10.20
2018-12-21T01:13:41.521Z,10.20
2018-12-21T01:14:45.918Z,10.20
2018-12-21T01:15:50.250Z,10.20
2018-12-21T01:16:55.777Z,10.30
2018-12-21T01:18:00.157Z,10.30
2018-12-21T01:19:04.718Z,10.30
2018-12-21T01:20:10.421Z,10.30
2018-12-21T01:21:15.736Z,10.30
2018-12-21T01:22:20.195Z,10.30
2018-12-21T01:23:24.544Z,10.20
2018-12-21T01:24:28.884Z,10.20
2018-12-21T01:25:33.482Z,10.20
2018-12-21T01:26:38.804Z,10.20
2018-12-21T01:27:44.195Z,10.20
2018-12-21T01:28:48.861Z,10.20
2018-12-21T01:29:53.197Z,10.30
2018-12-21T01:30:57.497Z,10.30
2018-12-21T01:32:01.818Z,10.30
2018-12-21T01:33:07.062Z,10.30
2018-12-21T01:34:11.917Z,10.30
2018-12-21T01:35:16.236Z,10.30
2018-12-21T01:36:20.523Z,10.30
2018-12-21T01:37:24.909Z,10.30
2018-12-21T01:38:29.622Z,10.30
2018-12-21T01:39:34.004Z,10.30
2018-12-21T01:40:38.345Z,10.30
2018-12-21T01:41:42.609Z,10.30
2018-12-21T01:42:47.264Z,10.30
2018-12-21T01:43:51.619Z,10.30
2018-12-21T01:44:55.905Z,10.30
2018-12-21T01:46:00.202Z,10.50
2018-12-21T01:47:04.665Z,10.30
2018-12-21T01:48:09.077Z,10.30
2018-12-21T01:49:14.463Z,10.30
2018-12-21T01:50:18.798Z,10.30
2018-12-21T01:51:23.075Z,10.30
2018-12-21T01:52:27.396Z,10.30
2018-12-21T01:53:31.664Z,10.20
2018-12-21T01:54:35.982Z,10.20
2018-12-21T01:55:40.516Z,10.30
2018-12-21T01:56:44.753Z,10.30
2018-12-21T01:57:49.198Z,10.30
2018-12-21T01:58:53.533Z,10.30
2018-12-21T01:59:58.153Z,10.20
2018-12-21T02:01:02.624Z,10.20
2018-12-21T02:02:07.000Z,10.30
2018-12-21T02:03:11.399Z,10.30
2018-12-21T02:04:21.398Z,10.30
2018-12-21T02:05:26.176Z,10.30
2018-12-21T02:06:30.485Z,10.30
2018-12-21T02:07:34.841Z,10.50
2018-12-21T02:08:39.789Z,10.40
2018-12-21T02:09:44.112Z,10.40
2018-12-21T02:10:48.408Z,10.40
2018-12-21T02:11:52.719Z,10.40
2018-12-21T02:12:57.144Z,10.40
2018-12-21T02:14:02.471Z,10.40
2018-12-21T02:15:08.129Z,10.40
2018-12-21T02:16:12.405Z,10.30
2018-12-21T02:17:16.691Z,10.30
2018-12-21T02:18:21.252Z,10.40
2018-12-21T02:19:26.213Z,10.30
2018-12-21T02:20:30.906Z,10.30
2018-12-21T02:21:35.865Z,10.30
2018-12-21T02:22:40.965Z,10.30
2018-12-21T02:23:45.265Z,10.30
2018-12-21T02:24:49.727Z,10.30
2018-12-21T02:25:57.438Z,10.30
2018-12-21T02:27:01.850Z,10.30
2018-12-21T02:28:09.193Z,10.40
2018-12-21T02:29:14.386Z,10.30
2018-12-21T02:30:19.246Z,10.30
2018-12-21T02:31:27.471Z,10.30
2018-12-21T02:32:33.050Z,10.30
2018-12-21T02:33:37.417Z,10.30
2018-12-21T02:34:41.808Z,10.30
2018-12-21T02:35:46.102Z,10.40
2018-12-21T02:36:50.385Z,10.30
2018-12-21T02:37:54.717Z,10.30
2018-12-21T02:39:00.892Z,10.30
2018-12-21T02:40:05.792Z,10.30
2018-12-21T02:41:10.102Z,10.30
2018-12-21T02:42:14.470Z,10.30
2018-12-21T02:43:18.753Z,10.30
2018-12-21T02:44:23.109Z,10.30
2018-12-21T02:45:27.490Z,10.30
2018-12-21T02:46:32.115Z,10.30
2018-12-21T02:47:36.433Z,10.30
2018-12-21T02:48:40.860Z,10.30
2018-12-21T02:49:45.218Z,10.30
2018-12-21T02:50:49.980Z,10.30
2018-12-21T02:51:54.271Z,10.30
2018-12-21T02:52:58.887Z,10.30
2018-12-21T02:54:03.207Z,10.40
2018-12-21T02:55:07.524Z,10.30
2018-12-21T02:56:12.001Z,10.30
2018-12-21T02:57:16.311Z,10.30
2018-12-21T02:58:21.265Z,10.40
2018-12-21T02:59:25.649Z,10.40
2018-12-21T03:00:30.001Z,10.50
2018-12-21T03:01:34.449Z,10.40
2018-12-21T03:02:38.853Z,10.40
2018-12-21T03:03:43.747Z,10.40
2018-12-21T03:04:48.088Z,10.40
2018-12-21T03:05:52.449Z,10.40
2018-12-21T03:06:57.136Z,10.40
2018-12-21T03:08:01.469Z,10.40
2018-12-21T03:09:09.935Z,10.40
2018-12-21T03:10:14.274Z,10.30
2018-12-21T03:11:19.369Z,10.40
2018-12-21T03:12:23.733Z,10.40
2018-12-21T03:13:28.148Z,10.40
2018-12-21T03:14:32.435Z,10.40
2018-12-21T03:15:36.754Z,10.40
2018-12-21T03:16:41.702Z,10.40
2018-12-21T03:17:46.690Z,10.40
2018-12-21T03:18:51.249Z,10.40
2018-12-21T03:19:55.974Z,10.40
2018-12-21T03:21:01.209Z,10.40
2018-12-21T03:22:14.265Z,10.40
2018-12-21T03:23:12.045Z,10.40
2018-12-21T03:24:16.490Z,10.30
2018-12-21T03:25:20.957Z,10.40
2018-12-21T03:26:25.759Z,10.40
2018-12-21T03:27:30.122Z,10.40
2018-12-21T03:28:34.761Z,10.50
2018-12-21T03:29:39.130Z,10.40
2018-12-21T03:30:43.802Z,10.40
2018-12-21T03:31:48.119Z,10.40
2018-12-21T03:32:52.878Z,10.40
2018-12-21T03:34:04.382Z,10.40
2018-12-21T03:35:08.977Z,10.50
2018-12-21T03:36:13.286Z,10.40
2018-12-21T03:37:17.951Z,10.40
2018-12-21T03:38:22.518Z,10.40
2018-12-21T03:39:26.823Z,10.40
2018-12-21T03:40:32.244Z,10.40
2018-12-21T03:41:38.288Z,10.40
2018-12-21T03:42:42.699Z,10.40
2018-12-21T03:43:47.422Z,10.40
2018-12-21T03:44:51.765Z,10.40
2018-12-21T03:45:56.845Z,10.50
2018-12-21T03:47:01.345Z,10.50
2018-12-21T03:48:05.946Z,10.50
2018-12-21T03:49:10.472Z,10.50
2018-12-21T03:50:15.226Z,10.50
2018-12-21T03:51:19.745Z,10.60
2018-12-21T03:52:24.754Z,10.40
2018-12-21T03:53:29.489Z,10.40
2018-12-21T03:54:33.813Z,10.40
2018-12-21T03:55:38.644Z,10.40
2018-12-21T03:56:43.248Z,10.20
2018-12-21T03:57:47.637Z,10.40
2018-12-21T03:58:51.971Z,10.40
2018-12-21T03:59:56.566Z,10.40
2018-12-21T04:01:01.096Z,10.40
2018-12-21T04:02:06.177Z,10.40
2018-12-21T04:03:11.454Z,10.40
2018-12-21T04:04:16.863Z,10.40
2018-12-21T04:05:21.207Z,10.40
2018-12-21T04:06:26.053Z,10.40
2018-12-21T04:07:30.360Z,10.40
2018-12-21T04:08:34.787Z,10.30
2018-12-21T04:09:39.309Z,10.40
2018-12-21T04:10:43.642Z,10.00
2018-12-21T04:11:48.373Z,10.40
2018-12-21T04:12:52.804Z,10.40
2018-12-21T04:13:57.669Z,11.10
2018-12-21T04:15:02.292Z,10.20
2018-12-21T04:16:07.473Z,10.50
2018-12-21T04:17:11.883Z,10.50
2018-12-21T04:18:16.275Z,10.50
2018-12-21T04:19:20.811Z,10.40
2018-12-21T04:20:25.205Z,10.20
2018-12-21T04:21:29.657Z,10.40
2018-12-21T04:22:34.697Z,10.90
2018-12-21T04:23:39.157Z,10.40
2018-12-21T04:26:39.896Z,10.40
2018-12-21T04:27:45.295Z,10.40
2018-12-21T04:28:49.947Z,10.50
2018-12-21T04:29:54.291Z,10.40
2018-12-21T04:30:58.982Z,10.40
2018-12-21T04:32:04.238Z,10.40
2018-12-21T04:33:08.888Z,10.40
2018-12-21T04:34:13.381Z,10.40
2018-12-21T04:35:17.903Z,10.50
2018-12-21T04:36:22.373Z,9.80
2018-12-21T04:37:27.285Z,10.60
2018-12-21T04:38:31.777Z,10.40
2018-12-21T04:39:36.354Z,10.40
2018-12-21T04:40:41.004Z,10.40
2018-12-21T04:41:45.534Z,10.40
2018-12-21T04:42:49.894Z,10.40
2018-12-21T04:43:54.823Z,10.40
2018-12-21T04:44:59.927Z,10.40
2018-12-21T04:46:04.442Z,10.40
2018-12-21T04:47:08.720Z,10.40
2018-12-21T04:48:13.542Z,10.40
2018-12-21T04:49:18.255Z,10.30
2018-12-21T04:50:22.694Z,10.40
2018-12-21T04:51:27.085Z,10.70
2018-12-21T04:52:31.607Z,10.20
2018-12-21T04:53:36.241Z,10.20
2018-12-21T04:54:41.025Z,10.30
2018-12-21T04:55:45.301Z,10.20
2018-12-21T04:56:49.720Z,10.30
2018-12-21T04:57:54.045Z,10.30
2018-12-21T04:58:58.400Z,10.20
2018-12-21T05:00:02.770Z,10.20
2018-12-21T05:01:07.165Z,10.20
2018-12-21T05:02:11.877Z,10.20
2018-12-21T05:03:16.197Z,10.10
2018-12-21T05:04:21.163Z,10.10
2018-12-21T05:05:25.496Z,10.10
2018-12-21T05:06:29.852Z,10.10
2018-12-21T05:07:34.774Z,10.00
2018-12-21T05:08:39.324Z,10.00
2018-12-21T05:09:43.837Z,9.90
2018-12-21T05:10:48.439Z,9.60
2018-12-21T05:11:53.263Z,9.90
2018-12-21T05:12:57.613Z,9.90
2018-12-21T05:14:02.075Z,9.80
2018-12-21T05:15:06.644Z,9.80
2018-12-21T05:16:11.123Z,9.70
2018-12-21T05:17:15.458Z,9.70
2018-12-21T05:18:20.117Z,9.70
2018-12-21T05:19:24.444Z,9.70
2018-12-21T05:20:38.579Z,9.70
2018-12-21T05:21:43.240Z,9.70
2018-12-21T05:22:52.221Z,9.70
2018-12-21T05:23:55.354Z,9.60
2018-12-21T05:24:59.907Z,9.60
2018-12-21T05:26:04.278Z,9.60
2018-12-21T05:27:08.674Z,9.60
2018-12-21T05:28:13.326Z,9.60
2018-12-21T05:29:18.402Z,9.70
2018-12-21T05:30:23.176Z,9.60
2018-12-21T05:31:28.792Z,9.50
2018-12-21T05:32:33.375Z,9.50
2018-12-21T05:33:39.110Z,9.50
2018-12-21T05:34:44.201Z,9.50
2018-12-21T05:35:48.484Z,9.50
2018-12-21T05:36:57.988Z,9.50
2018-12-21T05:38:02.735Z,9.50
2018-12-21T05:39:07.685Z,9.50
2018-12-21T05:40:16.767Z,9.50
2018-12-21T05:41:21.302Z,9.50
2018-12-21T05:42:31.310Z,9.50
2018-12-21T05:43:39.820Z,9.60
2018-12-21T05:44:47.355Z,9.60
2018-12-21T05:45:52.020Z,9.60
2018-12-21T05:46:56.649Z,9.60
2018-12-21T05:48:01.260Z,9.60
2018-12-21T05:49:12.229Z,9.60
2018-12-21T05:50:17.840Z,9.60
2018-12-21T05:51:25.012Z,9.60
2018-12-21T05:52:30.673Z,9.60
2018-12-21T05:53:35.808Z,9.60
2018-12-21T05:54:40.641Z,9.60
2018-12-21T05:55:45.430Z,9.60
2018-12-21T05:56:50.565Z,9.60
2018-12-21T05:57:55.044Z,9.60
2018-12-21T05:58:59.446Z,9.50
2018-12-21T06:00:04.420Z,9.60
2018-12-21T06:01:09.326Z,9.60
2018-12-21T06:02:14.016Z,9.60
2018-12-21T06:03:18.439Z,9.60
2018-12-21T06:04:22.879Z,9.60
2018-12-21T06:05:27.942Z,9.60
2018-12-21T06:06:32.825Z,9.60
2018-12-21T06:07:37.169Z,9.60
2018-12-21T06:08:41.513Z,9.60
2018-12-21T06:09:45.916Z,9.60
2018-12-21T06:10:50.323Z,9.70
2018-12-21T06:11:55.479Z,9.60
2018-12-21T06:12:59.853Z,9.60
2018-12-21T06:14:04.357Z,9.60
2018-12-21T06:15:08.836Z,9.60
2018-12-21T06:16:13.227Z,9.60
2018-12-21T06:17:17.595Z,9.60
2018-12-21T06:18:21.922Z,9.60
2018-12-21T06:19:26.731Z,9.60
2018-12-21T06:20:32.767Z,9.60
2018-12-21T06:21:37.345Z,9.60
2018-12-21T06:22:43.425Z,9.60
2018-12-21T06:23:47.991Z,9.70
2018-12-21T06:24:52.767Z,9.60
2018-12-21T06:25:57.605Z,9.70
2018-12-21T06:27:02.064Z,9.70
2018-12-21T06:28:11.374Z,9.50
2018-12-21T06:29:17.273Z,9.70
2018-12-21T06:30:22.212Z,9.70
2018-12-21T06:31:26.648Z,9.70
2018-12-21T06:32:32.049Z,9.00
2018-12-21T06:33:36.853Z,9.70
2018-12-21T06:34:41.859Z,9.70
2018-12-21T06:35:46.249Z,9.70
2018-12-21T06:36:51.197Z,9.70
2018-12-21T06:37:55.623Z,9.70
2018-12-21T06:39:00.175Z,9.70
2018-12-21T06:40:04.860Z,9.10
2018-12-21T06:41:09.418Z,9.80
2018-12-21T06:42:13.949Z,9.80
2018-12-21T06:43:19.741Z,9.80
2018-12-21T06:44:24.788Z,9.80
2018-12-21T06:45:29.562Z,9.80
2018-12-21T06:46:34.307Z,9.80
2018-12-21T06:47:39.266Z,9.80
2018-12-21T06:48:44.747Z,9.80
2018-12-21T06:49:49.063Z,9.80
2018-12-21T06:50:54.981Z,9.80
2018-12-21T06:52:13.148Z,9.80
2018-12-21T06:53:20.432Z,9.80
2018-12-21T06:54:26.312Z,9.80
2018-12-21T06:55:32.917Z,9.80
2018-12-21T06:56:37.557Z,9.80
2018-12-21T06:57:42.448Z,9.80
2018-12-21T06:58:47.274Z,9.80
2018-12-21T06:59:51.706Z,9.80
2018-12-21T07:00:56.927Z,9.80
2018-12-21T07:02:15.353Z,10.00
2018-12-21T07:03:31.878Z,9.80
2018-12-21T07:04:37.260Z,9.80
2018-12-21T07:05:48.168Z,9.80
2018-12-21T07:06:56.140Z,9.90
2018-12-21T07:08:02.798Z,9.80
2018-12-21T07:09:11.499Z,9.70
2018-12-21T07:10:18.869Z,9.80
2018-12-21T07:11:26.693Z,9.70
2018-12-21T07:12:32.432Z,9.80
2018-12-21T07:13:38.860Z,9.80
2018-12-21T07:14:56.372Z,9.70
2018-12-21T07:16:02.633Z,9.80
2018-12-21T07:17:12.534Z,9.80
2018-12-21T07:18:18.228Z,9.80
2018-12-21T07:19:24.706Z,9.70
2018-12-21T07:20:29.719Z,9.70
2018-12-21T07:21:34.255Z,9.80
2018-12-21T07:22:39.173Z,9.90
2018-12-21T07:23:44.192Z,9.60
2018-12-21T07:24:49.927Z,9.80
2018-12-21T07:25:54.404Z,9.80
2018-12-21T07:26:58.851Z,9.80
2018-12-21T07:28:03.786Z,9.80
2018-12-21T07:29:09.310Z,9.70
2018-12-21T07:30:14.868Z,9.70
2018-12-21T07:31:19.472Z,9.70
2018-12-21T07:32:24.268Z,9.70
2018-12-21T07:33:29.515Z,9.70
2018-12-21T07:34:34.622Z,9.70
2018-12-21T07:35:40.267Z,9.70
2018-12-21T07:36:45.080Z,9.70
2018-12-21T07:37:49.537Z,9.70
2018-12-21T07:38:54.038Z,9.70
2018-12-21T07:39:58.897Z,9.80
2018-12-21T07:41:03.578Z,9.80
2018-12-21T07:42:08.693Z,9.80
2018-12-21T07:43:13.193Z,9.90
2018-12-21T07:44:18.537Z,9.80
2018-12-21T07:45:23.379Z,9.80
2018-12-21T07:46:27.905Z,9.80
2018-12-21T07:47:32.444Z,9.80
2018-12-21T07:48:37.159Z,9.80
2018-12-21T07:49:41.889Z,9.80
2018-12-21T07:50:46.761Z,9.90
2018-12-21T07:51:51.871Z,9.90
2018-12-21T07:52:56.324Z,9.90
2018-12-21T07:54:00.808Z,9.90
2018-12-21T07:55:06.628Z,9.90
2018-12-21T07:56:11.296Z,9.80
2018-12-21T07:57:21.759Z,9.90
2018-12-21T07:58:28.292Z,9.30
2018-12-21T07:59:32.964Z,9.80
2018-12-21T08:00:38.681Z,10.40
2018-12-21T08:01:43.447Z,9.80
2018-12-21T08:02:52.259Z,9.70
2018-12-21T08:03:58.727Z,9.70
2018-12-21T08:05:03.494Z,9.70
2018-12-21T08:06:10.020Z,9.70
2018-12-21T08:07:14.753Z,9.70
2018-12-21T08:08:22.365Z,10.20
2018-12-21T08:09:54.880Z,9.70
2018-12-21T08:11:00.807Z,9.70
2018-12-21T08:12:07.981Z,9.70
2018-12-21T08:13:13.928Z,9.70
2018-12-21T08:14:18.830Z,9.70
2018-12-21T08:15:24.462Z,9.70
2018-12-21T08:16:30.099Z,9.10
2018-12-21T08:17:35.227Z,9.70
2018-12-21T08:18:40.069Z,9.70
2018-12-21T08:19:44.497Z,9.70
2018-12-21T08:20:49.760Z,9.70
2018-12-21T08:21:54.609Z,9.70
2018-12-21T08:23:00.401Z,9.80
2018-12-21T08:24:05.752Z,9.70
2018-12-21T08:25:37.228Z,9.70
2018-12-21T08:26:43.662Z,9.80
2018-12-21T08:27:48.664Z,9.80
2018-12-21T08:28:54.228Z,9.80
2018-12-21T08:30:00.516Z,9.80
2018-12-21T08:31:08.725Z,9.70
2018-12-21T08:32:16.818Z,9.70
2018-12-21T08:33:23.755Z,9.80
2018-12-21T08:34:28.396Z,10.10
2018-12-21T08:35:33.350Z,9.80
2018-12-21T08:36:39.413Z,9.80
2018-12-21T08:37:43.968Z,9.90
2018-12-21T08:38:52.158Z,9.80
2018-12-21T08:41:01.188Z,10.50
2018-12-21T08:42:10.777Z,9.80
2018-12-21T08:43:15.482Z,9.80
2018-12-21T08:44:20.004Z,9.80
2018-12-21T08:45:24.765Z,9.80
2018-12-21T08:46:29.532Z,9.80
2018-12-21T08:47:35.281Z,9.80
2018-12-21T08:48:41.033Z,9.90
2018-12-21T08:49:46.566Z,9.90
2018-12-21T08:50:50.914Z,9.90
2018-12-21T08:51:55.380Z,9.90
2018-12-21T08:53:00.109Z,9.90
2018-12-21T08:54:07.830Z,9.90
2018-12-21T08:55:13.141Z,9.90
2018-12-21T08:56:20.135Z,9.90
2018-12-21T08:57:27.134Z,9.90
2018-12-21T08:58:31.620Z,9.90
2018-12-21T08:59:38.288Z,9.90
2018-12-21T09:00:42.804Z,9.90
2018-12-21T09:01:47.281Z,9.90
2018-12-21T09:02:51.644Z,9.90
2018-12-21T09:03:56.628Z,9.90
2018-12-21T09:05:01.178Z,9.90
2018-12-21T09:06:05.756Z,10.00
2018-12-21T09:07:10.320Z,10.00
2018-12-21T09:08:14.788Z,10.00
2018-12-21T09:09:20.357Z,10.00
2018-12-21T09:10:24.886Z,10.10
2018-12-21T09:11:35.020Z,10.00
2018-12-21T09:12:40.616Z,10.10
2018-12-21T09:13:46.093Z,10.10
2018-12-21T09:14:50.477Z,10.10
2018-12-21T09:15:55.240Z,10.10
2018-12-21T09:16:59.653Z,10.10
2018-12-21T09:18:05.093Z,10.10
2018-12-21T09:19:10.699Z,10.10
2018-12-21T09:20:15.382Z,10.10
2018-12-21T09:21:19.862Z,10.10
2018-12-21T09:22:24.329Z,10.10
2018-12-21T09:23:31.835Z,10.10
2018-12-21T09:24:36.181Z,10.10
2018-12-21T09:25:42.497Z,10.10
2018-12-21T09:26:48.638Z,10.10
2018-12-21T09:27:53.589Z,10.00
2018-12-21T09:28:58.774Z,10.20
2018-12-21T09:30:03.747Z,10.10
2018-12-21T09:31:08.475Z,10.10
2018-12-21T09:32:14.792Z,10.10
2018-12-21T09:33:19.175Z,10.10
2018-12-21T09:34:23.654Z,10.10
2018-12-21T09:35:29.440Z,10.10
2018-12-21T09:36:40.059Z,10.10
2018-12-21T09:37:47.829Z,10.10
2018-12-21T09:38:52.503Z,10.10
2018-12-21T09:39:58.000Z,10.10
2018-12-21T09:41:03.868Z,10.10
2018-12-21T09:42:09.421Z,10.10
2018-12-21T09:43:14.957Z,10.00
2018-12-21T09:44:19.354Z,10.00
2018-12-21T09:45:25.479Z,10.00
2018-12-21T09:46:31.170Z,10.00
2018-12-21T09:47:36.993Z,10.10
2018-12-21T09:48:54.821Z,10.10
2018-12-21T09:50:04.854Z,10.10
2018-12-21T09:51:09.597Z,10.10
2018-12-21T09:52:14.145Z,10.10
2018-12-21T09:53:19.139Z,10.10
2018-12-21T09:54:25.589Z,10.10
2018-12-21T09:55:29.975Z,10.10
2018-12-21T09:56:35.592Z,10.10
2018-12-21T09:57:40.250Z,10.10
2018-12-21T09:58:45.603Z,10.20
2018-12-21T09:59:50.106Z,10.20
2018-12-21T10:00:54.911Z,10.20
2018-12-21T10:02:00.473Z,10.20
2018-12-21T10:03:05.104Z,9.80
2018-12-21T10:04:12.626Z,10.10
2018-12-21T10:05:18.988Z,10.10
2018-12-21T10:06:23.772Z,10.20
2018-12-21T10:07:28.433Z,10.20
2018-12-21T10:08:32.868Z,10.20
2018-12-21T10:09:38.282Z,10.20
2018-12-21T10:10:43.000Z,10.20
2018-12-21T10:11:48.106Z,10.20
2018-12-21T10:12:53.481Z,10.30
2018-12-21T10:13:58.094Z,10.30
2018-12-21T10:15:02.555Z,10.30
2018-12-21T10:16:07.555Z,10.30
2018-12-21T10:17:12.784Z,10.30
2018-12-21T10:18:17.308Z,10.30
2018-12-21T10:19:22.893Z,10.30
2018-12-21T10:20:27.373Z,10.30
2018-12-21T10:21:32.006Z,10.40
2018-12-21T10:22:36.530Z,10.40
2018-12-21T10:23:41.112Z,10.40
2018-12-21T10:24:45.963Z,10.40
2018-12-21T10:25:50.456Z,10.40
2018-12-21T10:26:55.944Z,10.40
2018-12-21T10:28:01.446Z,10.40
2018-12-21T10:29:06.510Z,10.40
2018-12-21T10:30:13.016Z,10.40
2018-12-21T10:31:21.294Z,10.50
2018-12-21T10:32:27.308Z,10.50
2018-12-21T10:33:35.162Z,10.50
2018-12-21T10:34:39.628Z,10.60
2018-12-21T10:35:44.201Z,10.60
2018-12-21T10:36:50.572Z,10.60
2018-12-21T10:37:55.966Z,10.60
2018-12-21T10:39:00.855Z,10.60
2018-12-21T10:40:13.434Z,10.70
2018-12-21T10:41:17.825Z,10.70
2018-12-21T10:42:26.936Z,10.70
2018-12-21T10:43:31.858Z,10.70
2018-12-21T10:44:36.769Z,10.70
2018-12-21T10:45:41.974Z,10.70
2018-12-21T10:46:47.017Z,10.80
2018-12-21T10:47:53.578Z,10.80
2018-12-21T10:48:58.609Z,10.90
2018-12-21T10:50:03.441Z,10.90
2018-12-21T10:51:09.120Z,10.90
2018-12-21T10:52:15.972Z,11.00
2018-12-21T10:53:21.540Z,11.00
2018-12-21T10:54:27.620Z,11.10
2018-12-21T10:57:17.267Z,11.20
2018-12-21T10:58:23.916Z,11.30
2018-12-21T10:59:28.859Z,11.40
2018-12-21T11:00:42.729Z,11.40
2018-12-21T11:01:50.640Z,11.50
2018-12-21T11:02:56.783Z,11.60
2018-12-21T11:04:01.980Z,11.70
2018-12-21T11:05:08.834Z,11.80
2018-12-21T11:06:19.256Z,11.90
2018-12-21T11:07:36.055Z,11.90
2018-12-21T11:08:45.734Z,12.20
2018-12-21T11:09:50.320Z,12.30
2018-12-21T11:10:55.216Z,12.40
2018-12-21T11:12:01.806Z,12.50
2018-12-21T11:13:12.197Z,12.60
2018-12-21T11:14:21.012Z,12.70
2018-12-21T11:15:27.334Z,12.80
2018-12-21T11:16:33.415Z,12.90
2018-12-21T11:17:39.167Z,13.00
2018-12-21T11:19:04.020Z,13.10
2018-12-21T11:20:15.856Z,13.10
2018-12-21T11:21:20.294Z,13.20
2018-12-21T11:22:26.804Z,13.20
2018-12-21T11:23:31.168Z,13.20
2018-12-21T11:24:38.134Z,13.30
2018-12-21T11:25:45.264Z,13.30
2018-12-21T11:26:54.174Z,13.40
2018-12-21T11:27:58.828Z,13.40
2018-12-21T11:29:04.636Z,13.40
2018-12-21T11:30:09.844Z,13.40
2018-12-21T11:31:18.714Z,13.40
2018-12-21T11:32:23.729Z,13.50
2018-12-21T11:33:28.895Z,13.50
2018-12-21T11:34:40.081Z,13.50
2018-12-21T11:35:45.572Z,13.60
2018-12-21T11:36:50.708Z,13.60
2018-12-21T11:37:55.714Z,13.60
2018-12-21T11:39:00.107Z,13.70
2018-12-21T11:40:05.259Z,13.70
2018-12-21T11:41:10.065Z,13.70
2018-12-21T11:42:18.456Z,13.80
2018-12-21T11:43:24.910Z,13.80
2018-12-21T11:44:31.691Z,13.80
2018-12-21T11:45:36.792Z,13.90
2018-12-21T11:46:42.858Z,14.00
2018-12-21T11:47:48.429Z,14.00
2018-12-21T11:48:56.967Z,14.10
2018-12-21T11:50:01.597Z,14.10
2018-12-21T11:51:20.129Z,14.10
2018-12-21T11:52:26.402Z,14.10
2018-12-21T11:53:34.009Z,14.10
2018-12-21T11:54:44.208Z,14.10
2018-12-21T11:55:45.434Z,14.10
2018-12-21T11:56:51.574Z,14.10
2018-12-21T11:57:59.873Z,14.20
2018-12-21T11:59:07.313Z,14.10
2018-12-21T12:00:13.785Z,14.10
2018-12-21T12:01:18.827Z,14.20
2018-12-21T12:02:30.275Z,14.10
2018-12-21T12:03:34.713Z,14.10
2018-12-21T12:04:42.841Z,14.20
2018-12-21T12:05:50.004Z,14.20
2018-12-21T12:06:55.897Z,14.20
2018-12-21T12:08:04.355Z,14.20
2018-12-21T12:09:08.887Z,14.20
2018-12-21T12:10:13.882Z,14.20
2018-12-21T12:11:31.911Z,14.30
2018-12-21T12:12:39.468Z,14.50
2018-12-21T12:13:44.222Z,14.30
2018-12-21T12:14:48.735Z,14.30
2018-12-21T12:15:54.827Z,14.30
2018-12-21T12:16:59.690Z,14.30
2018-12-21T12:18:05.635Z,14.30
2018-12-21T12:19:10.465Z,14.30
2018-12-21T12:20:15.252Z,14.30
2018-12-21T12:21:19.644Z,14.30
2018-12-21T12:22:24.249Z,14.40
2018-12-21T12:23:34.228Z,14.30
2018-12-21T12:24:40.315Z,14.40
2018-12-21T12:25:48.890Z,15.00
2018-12-21T12:26:53.866Z,14.40
2018-12-21T12:27:58.546Z,14.40
2018-12-21T12:29:03.854Z,14.40
2018-12-21T12:30:10.704Z,14.40
2018-12-21T12:31:15.688Z,14.70
2018-12-21T12:32:20.154Z,14.50
2018-12-21T12:33:27.552Z,14.50
2018-12-21T12:34:34.274Z,14.50
2018-12-21T12:35:39.494Z,14.50
2018-12-21T12:36:44.143Z,14.60
2018-12-21T12:37:48.628Z,14.60
2018-12-21T12:38:54.381Z,14.60
2018-12-21T12:40:01.534Z,14.60
2018-12-21T12:41:07.719Z,14.20
2018-12-21T12:42:14.909Z,14.60
2018-12-21T12:43:27.341Z,14.60
2018-12-21T12:44:33.723Z,14.60
2018-12-21T12:45:38.611Z,14.70
2018-12-21T12:47:54.451Z,14.70
2018-12-21T12:48:58.856Z,14.70
2018-12-21T12:50:03.870Z,14.70
2018-12-21T12:51:09.678Z,14.80
2018-12-21T12:52:14.348Z,14.80
2018-12-21T12:53:19.668Z,14.70
2018-12-21T12:54:24.850Z,14.70
2018-12-21T12:55:29.721Z,14.60
2018-12-21T12:56:34.314Z,14.70
2018-12-21T12:57:39.893Z,14.60
2018-12-21T12:58:44.442Z,14.50
2018-12-21T12:59:48.788Z,14.60
2018-12-21T13:00:53.856Z,14.60
2018-12-21T13:01:58.541Z,14.60
2018-12-21T13:03:03.239Z,14.60
2018-12-21T13:04:08.796Z,14.60
2018-12-21T13:05:13.215Z,14.60
2018-12-21T13:07:17.336Z,14.60
2018-12-21T13:08:22.285Z,14.60
2018-12-21T13:09:28.268Z,14.70
2018-12-21T13:10:34.016Z,14.50
2018-12-21T13:11:39.707Z,14.50
2018-12-21T13:14:35.521Z,14.50
2018-12-21T13:15:41.735Z,14.60
2018-12-21T13:16:47.250Z,14.60
2018-12-21T13:17:56.053Z,14.60
2018-12-21T13:19:00.339Z,14.60
2018-12-21T13:20:05.835Z,14.60
2018-12-21T13:21:10.630Z,14.60
2018-12-21T13:22:15.950Z,14.70
2018-12-21T13:23:20.915Z,14.60
2018-12-21T13:24:25.673Z,14.70
2018-12-21T13:25:30.208Z,14.60
2018-12-21T13:26:40.666Z,14.70
2018-12-21T13:27:46.212Z,14.70
2018-12-21T13:28:52.275Z,14.70
2018-12-21T13:29:56.893Z,14.60
2018-12-21T13:31:02.430Z,14.90
2018-12-21T13:32:06.935Z,14.80
2018-12-21T13:33:11.188Z,14.80
2018-12-21T13:34:15.856Z,14.70
2018-12-21T13:35:26.765Z,14.80
2018-12-21T13:36:39.565Z,14.80
2018-12-21T13:37:44.232Z,14.90
2018-12-21T13:38:51.288Z,14.60
2018-12-21T13:39:59.803Z,14.80
2018-12-21T13:41:08.875Z,14.80
2018-12-21T13:42:18.573Z,14.80
2018-12-21T13:43:28.553Z,14.80
2018-12-21T13:44:37.379Z,14.80
2018-12-21T13:45:41.875Z,14.30
2018-12-21T13:46:46.193Z,14.80
2018-12-21T13:47:50.906Z,14.80
2018-12-21T13:48:57.728Z,14.80
2018-12-21T13:50:07.244Z,14.80
2018-12-21T13:51:15.509Z,14.80
2018-12-21T13:52:21.854Z,14.80
2018-12-21T13:53:39.720Z,14.80
2018-12-21T13:54:45.253Z,14.90
2018-12-21T13:55:51.096Z,14.80
2018-12-21T13:56:58.000Z,14.80
2018-12-21T13:58:02.707Z,14.80
2018-12-21T13:59:08.436Z,14.80
2018-12-21T14:00:20.581Z,14.70
2018-12-21T14:01:33.283Z,14.70
2018-12-21T14:02:38.378Z,14.70
2018-12-21T14:03:43.369Z,14.70
2018-12-21T14:04:55.668Z,14.60
2018-12-21T14:05:59.980Z,14.70
2018-12-21T14:07:10.337Z,14.70
2018-12-21T14:08:15.836Z,14.70
2018-12-21T14:09:20.840Z,14.80
2018-12-21T14:10:26.016Z,14.80
2018-12-21T14:11:32.198Z,14.80
2018-12-21T14:12:37.979Z,14.80
2018-12-21T14:13:43.662Z,14.80
2018-12-21T14:14:48.655Z,14.80
2018-12-21T14:15:55.285Z,14.80
2018-12-21T14:17:01.536Z,14.80
2018-12-21T14:18:06.665Z,14.80
2018-12-21T14:19:10.949Z,14.90
2018-12-21T14:20:21.618Z,14.80
2018-12-21T14:21:26.188Z,14.80
2018-12-21T14:22:34.399Z,14.80
2018-12-21T14:23:39.839Z,14.70